sensor_id;sensor_type;location;lat;lon;timestamp;temperature;humidity
29255;DHT22;16277;48.890;2.306;2023-04-06T00:12:11;16.80;54.20
29255;DHT22;16277;48.890;2.306;2023-04-06T00:27:16;16.10;57.30
29255;DHT22;16277;48.890;2.306;2023-04-06T00:42:21;16.30;57.40
29255;DHT22;16277;48.890;2.306;2023-04-06T00:57:29;15.60;61.30
29255;DHT22;16277;48.890;2.306;2023-04-06T01:12:34;16.60;59.60
29255;DHT22;16277;48.890;2.306;2023-04-06T01:27:43;16.40;60.80
29255;DHT22;16277;48.890;2.306;2023-04-06T01:42:48;15.50;64.40
29255;DHT22;16277;48.890;2.306;2023-04-06T01:58:02;16.10;63.90
29255;DHT22;16277;48.890;2.306;2023-04-06T02:13:12;16.00;64.90
29255;DHT22;16277;48.890;2.306;2023-04-06T02:28:22;15.80;66.60
29255;DHT22;16277;48.890;2.306;2023-04-06T02:43:27;16.00;65.20
29255;DHT22;16277;48.890;2.306;2023-04-06T02:58:48;16.50;64.40
29255;DHT22;16277;48.890;2.306;2023-04-06T03:13:54;15.50;66.10
29255;DHT22;16277;48.890;2.306;2023-04-06T03:28:58;15.90;65.30
29255;DHT22;16277;48.890;2.306;2023-04-06T03:44:06;15.90;64.10
29255;DHT22;16277;48.890;2.306;2023-04-06T03:59:12;16.10;63.00
29255;DHT22;16277;48.890;2.306;2023-04-06T04:14:18;16.00;64.80
29255;DHT22;16277;48.890;2.306;2023-04-06T04:29:23;16.30;65.10
29255;DHT22;16277;48.890;2.306;2023-04-06T04:44:30;16.30;65.40
29255;DHT22;16277;48.890;2.306;2023-04-06T04:59:35;16.30;64.30
29255;DHT22;16277;48.890;2.306;2023-04-06T05:14:50;15.90;64.70
29255;DHT22;16277;48.890;2.306;2023-04-06T05:29:56;15.30;68.00
29255;DHT22;16277;48.890;2.306;2023-04-06T05:45:03;15.60;66.30
29255;DHT22;16277;48.890;2.306;2023-04-06T06:00:10;15.30;67.50
29255;DHT22;16277;48.890;2.306;2023-04-06T06:15:16;16.00;66.30
29255;DHT22;16277;48.890;2.306;2023-04-06T06:30:23;15.80;68.90
29255;DHT22;16277;48.890;2.306;2023-04-06T06:45:28;16.10;70.20
29255;DHT22;16277;48.890;2.306;2023-04-06T07:00:33;16.20;72.50
29255;DHT22;16277;48.890;2.306;2023-04-06T07:15:38;16.20;72.20
29255;DHT22;16277;48.890;2.306;2023-04-06T07:30:43;16.00;72.00
29255;DHT22;16277;48.890;2.306;2023-04-06T07:45:48;15.50;74.40
29255;DHT22;16277;48.890;2.306;2023-04-06T08:00:53;14.60;81.00
29255;DHT22;16277;48.890;2.306;2023-04-06T08:15:58;14.70;84.10
29255;DHT22;16277;48.890;2.306;2023-04-06T08:31:07;14.70;87.70
29255;DHT22;16277;48.890;2.306;2023-04-06T08:46:12;14.70;88.70
29255;DHT22;16277;48.890;2.306;2023-04-06T09:01:20;14.50;90.20
29255;DHT22;16277;48.890;2.306;2023-04-06T09:16:25;14.10;91.70
29255;DHT22;16277;48.890;2.306;2023-04-06T09:31:30;14.50;92.30
29255;DHT22;16277;48.890;2.306;2023-04-06T09:46:38;14.50;95.40
29255;DHT22;16277;48.890;2.306;2023-04-06T10:02:01;14.20;96.40
29255;DHT22;16277;48.890;2.306;2023-04-06T10:17:08;14.40;98.20
29255;DHT22;16277;48.890;2.306;2023-04-06T10:32:14;14.30;99.90
29255;DHT22;16277;48.890;2.306;2023-04-06T10:47:19;14.50;99.90
29255;DHT22;16277;48.890;2.306;2023-04-06T11:02:24;14.30;99.90
29255;DHT22;16277;48.890;2.306;2023-04-06T11:17:29;14.90;99.90
29255;DHT22;16277;48.890;2.306;2023-04-06T11:32:40;14.90;99.90
29255;DHT22;16277;48.890;2.306;2023-04-06T11:47:55;15.30;99.90
29255;DHT22;16277;48.890;2.306;2023-04-06T12:03:00;15.70;98.50
29255;DHT22;16277;48.890;2.306;2023-04-06T12:18:06;16.20;97.10
29255;DHT22;16277;48.890;2.306;2023-04-06T12:33:10;16.70;95.80
29255;DHT22;16277;48.890;2.306;2023-04-06T12:48:15;15.80;96.50
29255;DHT22;16277;48.890;2.306;2023-04-06T13:03:20;15.60;96.60
29255;DHT22;16277;48.890;2.306;2023-04-06T13:18:25;16.50;95.60
29255;DHT22;16277;48.890;2.306;2023-04-06T13:33:30;16.30;94.80
29255;DHT22;16277;48.890;2.306;2023-04-06T13:48:35;16.90;93.90
29255;DHT22;16277;48.890;2.306;2023-04-06T14:03:39;16.70;93.50
29255;DHT22;16277;48.890;2.306;2023-04-06T14:18:45;17.00;92.20
29255;DHT22;16277;48.890;2.306;2023-04-06T14:33:50;17.70;90.60
29255;DHT22;16277;48.890;2.306;2023-04-06T14:48:56;19.40;80.20
29255;DHT22;16277;48.890;2.306;2023-04-06T15:04:02;19.70;76.50
29255;DHT22;16277;48.890;2.306;2023-04-06T15:19:06;22.00;73.70
29255;DHT22;16277;48.890;2.306;2023-04-06T15:34:11;24.80;58.70
29255;DHT22;16277;48.890;2.306;2023-04-06T15:49:16;21.50;64.30
29255;DHT22;16277;48.890;2.306;2023-04-06T16:04:20;21.40;67.80
29255;DHT22;16277;48.890;2.306;2023-04-06T16:19:25;22.50;65.60
29255;DHT22;16277;48.890;2.306;2023-04-06T16:34:31;22.20;65.80
29255;DHT22;16277;48.890;2.306;2023-04-06T16:49:36;22.10;65.70
29255;DHT22;16277;48.890;2.306;2023-04-06T17:04:40;21.60;65.40
29255;DHT22;16277;48.890;2.306;2023-04-06T17:19:45;20.30;65.00
29255;DHT22;16277;48.890;2.306;2023-04-06T17:34:50;20.10;65.40
29255;DHT22;16277;48.890;2.306;2023-04-06T17:49:54;19.10;69.40
29255;DHT22;16277;48.890;2.306;2023-04-06T18:04:59;19.10;72.30
29255;DHT22;16277;48.890;2.306;2023-04-06T18:20:04;18.50;73.10
29255;DHT22;16277;48.890;2.306;2023-04-06T18:35:09;17.60;76.20
29255;DHT22;16277;48.890;2.306;2023-04-06T18:50:14;17.40;79.70
29255;DHT22;16277;48.890;2.306;2023-04-06T19:05:19;17.70;78.60
29255;DHT22;16277;48.890;2.306;2023-04-06T19:20:24;16.70;81.40
29255;DHT22;16277;48.890;2.306;2023-04-06T19:35:29;16.90;81.40
29255;DHT22;16277;48.890;2.306;2023-04-06T19:50:33;16.70;82.20
29255;DHT22;16277;48.890;2.306;2023-04-06T20:05:38;15.90;84.10
29255;DHT22;16277;48.890;2.306;2023-04-06T20:20:42;15.70;85.90
29255;DHT22;16277;48.890;2.306;2023-04-06T20:35:55;15.50;86.90
29255;DHT22;16277;48.890;2.306;2023-04-06T20:50:59;15.70;85.00
29255;DHT22;16277;48.890;2.306;2023-04-06T21:06:04;16.10;82.60
29255;DHT22;16277;48.890;2.306;2023-04-06T21:21:09;15.70;84.50
29255;DHT22;16277;48.890;2.306;2023-04-06T21:36:14;16.30;82.80
29255;DHT22;16277;48.890;2.306;2023-04-06T21:51:19;15.60;84.20
29255;DHT22;16277;48.890;2.306;2023-04-06T22:06:24;16.10;84.60
29255;DHT22;16277;48.890;2.306;2023-04-06T22:21:28;15.30;89.60
29255;DHT22;16277;48.890;2.306;2023-04-06T22:36:33;15.70;88.80
29255;DHT22;16277;48.890;2.306;2023-04-06T22:51:38;15.10;90.70
29255;DHT22;16277;48.890;2.306;2023-04-06T23:06:44;15.30;90.80
29255;DHT22;16277;48.890;2.306;2023-04-06T23:21:48;14.70;92.50
29255;DHT22;16277;48.890;2.306;2023-04-06T23:36:53;15.50;91.80
29255;DHT22;16277;48.890;2.306;2023-04-06T23:51:57;14.10;94.70
